createdAt,value
2024-04-22T00:01:49.818Z,102218.81
2024-04-22T00:04:19.690Z,102213.19
2024-04-22T00:06:47.293Z,102218.81
2024-04-22T00:09:17.473Z,102211.53
2024-04-22T00:11:44.534Z,102211.53
2024-04-22T00:14:14.928Z,102208.72
2024-04-22T00:16:42.168Z,102209.19
2024-04-22T00:19:14.905Z,102207.53
2024-04-22T00:21:42.072Z,102202.25
2024-04-22T00:24:11.809Z,102205.91
2024-04-22T00:26:39.832Z,102205.91
2024-04-22T00:29:10.086Z,102205.91
2024-04-22T00:31:37.361Z,102204.25
2024-04-22T00:34:07.231Z,102198.63
2024-04-22T00:36:37.097Z,102192.97
2024-04-22T00:39:06.896Z,102197.81
2024-04-22T00:41:35.227Z,102195.34
2024-04-22T00:44:05.070Z,102197.00
2024-04-22T00:46:32.362Z,102199.81
2024-04-22T00:49:02.408Z,102199.34
2024-04-22T00:51:29.700Z,102194.53
2024-04-22T00:54:03.150Z,102194.53
2024-04-22T00:56:30.359Z,102189.72
2024-04-22T00:59:01.785Z,102203.56
2024-04-22T01:01:29.094Z,102201.81
2024-04-22T01:03:59.152Z,102192.97
2024-04-22T01:06:26.358Z,102196.63
2024-04-22T01:08:56.117Z,102200.19
2024-04-22T01:11:26.047Z,102200.25
2024-04-22T01:13:55.861Z,102199.34
2024-04-22T01:16:22.922Z,102204.97
2024-04-22T01:18:52.630Z,102205.81
2024-04-22T01:21:25.589Z,102200.53
2024-04-22T01:23:55.917Z,102193.25
2024-04-22T01:26:23.766Z,102194.44
2024-04-22T01:28:53.578Z,102198.88
2024-04-22T01:31:20.754Z,102199.34
2024-04-22T01:33:50.736Z,102194.88
2024-04-22T01:36:17.803Z,102199.72
2024-04-22T01:38:51.284Z,102193.69
2024-04-22T01:41:18.397Z,102192.06
2024-04-22T01:43:48.400Z,102196.06
2024-04-22T01:46:15.695Z,102196.88
2024-04-22T01:48:45.515Z,102193.63
2024-04-22T01:51:12.717Z,102190.81
2024-04-22T01:53:42.594Z,102194.44
2024-04-22T01:56:12.384Z,102187.59
2024-04-22T01:58:42.179Z,102184.78
2024-04-22T02:01:09.796Z,102190.44
2024-04-22T02:03:39.697Z,102199.25
2024-04-22T02:06:06.826Z,102183.97
2024-04-22T02:08:36.585Z,102187.13
2024-04-22T02:11:04.049Z,102188.06
2024-04-22T02:13:36.682Z,102196.88
2024-04-22T02:16:04.102Z,102187.59
2024-04-22T02:18:34.535Z,102188.06
2024-04-22T02:21:01.756Z,102185.59
2024-04-22T02:23:31.520Z,102196.88
2024-04-22T02:25:58.587Z,102190.44
2024-04-22T02:28:28.360Z,102186.41
2024-04-22T02:30:58.294Z,102184.78
2024-04-22T02:33:28.182Z,102179.59
2024-04-22T02:35:55.648Z,102188.06
2024-04-22T02:38:25.357Z,102183.59
2024-04-22T02:40:52.456Z,102175.97
2024-04-22T02:43:22.217Z,102172.78
2024-04-22T02:45:49.371Z,102169.16
2024-04-22T02:48:21.902Z,102161.50
2024-04-22T02:50:49.067Z,102166.34
2024-04-22T02:53:18.881Z,102168.31
2024-04-22T02:55:46.499Z,102163.84
2024-04-22T02:58:16.354Z,102159.84
2024-04-22T03:00:48.007Z,102163.84
2024-04-22T03:03:18.026Z,102162.22
2024-04-22T03:05:47.772Z,102162.22
2024-04-22T03:08:17.570Z,102162.22
2024-04-22T03:10:44.666Z,102164.56
2024-04-22T03:13:14.533Z,102165.41
2024-04-22T03:15:41.655Z,102167.72
2024-04-22T03:18:11.786Z,102161.28
2024-04-22T03:20:38.922Z,102167.38
2024-04-22T03:23:11.351Z,102166.91
2024-04-22T03:25:38.587Z,102168.53
2024-04-22T03:28:08.899Z,102157.25
2024-04-22T03:30:36.077Z,102166.91
2024-04-22T03:33:05.883Z,102166.91
2024-04-22T03:35:33.479Z,102159.63
2024-04-22T03:38:03.197Z,102147.53
2024-04-22T03:40:35.769Z,102151.56
2024-04-22T03:43:05.680Z,102153.19
2024-04-22T03:45:35.539Z,102147.53
2024-04-22T03:48:21.498Z,102156.81
2024-04-22T03:50:51.412Z,102152.38
2024-04-22T03:53:21.078Z,102151.19
2024-04-22T03:55:53.511Z,102158.81
2024-04-22T03:58:23.221Z,102161.28
2024-04-22T04:00:50.399Z,102159.63
2024-04-22T04:03:20.240Z,102177.38
2024-04-22T04:05:47.296Z,102172.09
2024-04-22T04:08:16.982Z,102177.31
2024-04-22T04:10:44.980Z,102178.94
2024-04-22T04:13:17.547Z,102178.94
2024-04-22T04:15:44.570Z,102172.81
2024-04-22T04:18:14.442Z,102181.28
2024-04-22T04:20:41.547Z,102173.19
2024-04-22T04:23:11.298Z,102166.75
2024-04-22T04:25:38.617Z,102170.00
2024-04-22T04:28:08.611Z,102164.34
2024-04-22T04:30:38.415Z,102160.38
2024-04-22T04:33:08.603Z,102169.28
2024-04-22T04:35:35.841Z,102163.66
2024-04-22T04:38:05.561Z,102173.75
2024-04-22T04:40:32.619Z,102166.09
2024-04-22T04:43:02.423Z,102168.53
2024-04-22T04:45:29.765Z,102170.22
2024-04-22T04:48:02.347Z,102169.72
2024-04-22T04:50:29.705Z,102167.72
2024-04-22T04:52:59.507Z,102164.56
2024-04-22T04:55:26.792Z,102167.38
2024-04-22T04:57:56.558Z,102168.53
2024-04-22T05:00:23.734Z,102163.75
2024-04-22T05:02:53.582Z,102166.91
2024-04-22T05:05:23.630Z,102166.56
2024-04-22T05:07:54.378Z,102163.75
2024-04-22T05:10:24.609Z,102179.81
2024-04-22T05:12:55.822Z,102173.03
2024-04-22T05:15:23.424Z,102174.19
2024-04-22T05:17:53.705Z,102176.31
2024-04-22T05:20:23.595Z,102175.84
2024-04-22T05:22:53.474Z,102173.03
2024-04-22T05:25:20.625Z,102169.50
2024-04-22T05:27:50.485Z,102173.13
2024-04-22T05:30:17.731Z,102172.31
2024-04-22T05:32:47.581Z,102173.94
2024-04-22T05:35:33.374Z,102160.22
2024-04-22T05:38:06.095Z,102167.88
2024-04-22T05:40:35.886Z,102158.22
2024-04-22T05:43:05.730Z,102169.50
2024-04-22T05:45:35.649Z,102170.31
2024-04-22T05:48:05.511Z,102173.50
2024-04-22T05:50:35.265Z,102181.25
2024-04-22T05:53:08.099Z,102176.78
2024-04-22T05:55:38.398Z,102171.13
2024-04-22T05:58:05.616Z,102172.31
2024-04-22T06:00:35.371Z,102170.69
2024-04-22T06:03:02.552Z,102166.22
2024-04-22T06:05:32.400Z,102169.50
2024-04-22T06:07:59.481Z,102175.13
2024-04-22T06:10:34.127Z,102167.88
2024-04-22T06:13:02.036Z,102169.50
2024-04-22T06:15:31.779Z,102171.88
2024-04-22T06:17:58.964Z,102175.03
2024-04-22T06:20:28.877Z,102179.16
2024-04-22T06:22:56.130Z,102186.41
2024-04-22T06:25:25.991Z,102183.59
2024-04-22T06:27:55.767Z,102180.78
2024-04-22T06:30:25.528Z,102167.16
2024-04-22T06:32:52.883Z,102168.78
2024-04-22T06:35:23.575Z,102168.78
2024-04-22T06:37:50.710Z,102163.16
2024-04-22T06:40:20.651Z,102160.75
2024-04-22T06:42:47.780Z,102160.75
2024-04-22T06:45:20.326Z,102170.41
2024-04-22T06:47:47.457Z,102174.44
2024-04-22T06:50:17.503Z,102166.41
2024-04-22T06:52:44.743Z,102163.16
2024-04-22T06:55:14.721Z,102162.31
2024-04-22T06:57:41.799Z,102173.25
2024-04-22T07:00:11.891Z,102169.97
2024-04-22T07:02:41.670Z,102154.22
2024-04-22T07:05:11.616Z,102158.22
2024-04-22T07:07:38.880Z,102156.59
2024-04-22T07:10:09.054Z,102152.56
2024-04-22T07:12:36.207Z,102162.22
2024-04-22T07:15:06.021Z,102159.84
2024-04-22T07:17:35.476Z,102167.16
2024-04-22T07:20:09.268Z,102159.84
2024-04-22T07:22:39.895Z,102156.31
2024-04-22T07:25:10.056Z,102160.31
2024-04-22T07:27:37.631Z,102159.13
2024-04-22T07:30:08.121Z,102159.13
2024-04-22T07:32:36.163Z,102170.41
2024-04-22T07:35:09.599Z,102166.34
2024-04-22T07:37:38.418Z,102163.41
2024-04-22T07:40:14.905Z,102163.84
2024-04-22T07:42:42.174Z,102161.50
2024-04-22T07:45:12.432Z,102164.31
2024-04-22T07:47:41.202Z,102164.78
2024-04-22T07:50:14.813Z,102163.97
2024-04-22T07:52:42.739Z,102169.59
2024-04-22T07:55:14.465Z,102168.84
2024-04-22T07:57:42.776Z,102172.06
2024-04-22T08:00:13.474Z,102168.78
2024-04-22T08:02:41.758Z,102172.06
2024-04-22T08:05:15.393Z,102167.22
2024-04-22T08:07:42.863Z,102167.22
2024-04-22T08:10:12.843Z,102162.41
2024-04-22T08:12:40.270Z,102163.59
2024-04-22T08:15:10.213Z,102170.41
2024-04-22T08:17:37.693Z,102168.84
2024-04-22T08:20:08.019Z,102173.94
2024-04-22T08:22:37.965Z,102167.16
2024-04-22T08:25:08.803Z,102171.88
2024-04-22T08:27:35.915Z,102168.69
2024-04-22T08:30:06.539Z,102165.50
2024-04-22T08:32:34.025Z,102160.69
2024-04-22T08:35:05.099Z,102155.41
2024-04-22T08:37:32.295Z,102162.66
2024-04-22T08:40:04.765Z,102169.50
2024-04-22T08:42:32.085Z,102160.69
2024-04-22T08:45:01.923Z,102163.84
2024-04-22T08:47:29.219Z,102155.88
2024-04-22T08:49:59.125Z,102155.88
2024-04-22T08:52:36.575Z,102148.66
2024-04-22T08:55:10.538Z,102151.13
2024-04-22T08:57:40.403Z,102151.13
2024-04-22T09:00:10.952Z,102147.84
2024-04-22T09:02:40.583Z,102142.66
2024-04-22T09:05:12.073Z,102144.75
2024-04-22T09:07:39.944Z,102144.75
2024-04-22T09:10:35.716Z,102145.94
2024-04-22T09:13:02.624Z,102148.78
2024-04-22T09:15:32.972Z,102143.13
2024-04-22T09:18:02.812Z,102147.13
2024-04-22T09:20:35.817Z,102156.75
2024-04-22T09:23:03.262Z,102151.13
2024-04-22T09:25:36.312Z,102155.13
2024-04-22T09:28:04.557Z,102149.47
2024-04-22T09:30:42.399Z,102145.47
2024-04-22T09:33:10.663Z,102139.84
2024-04-22T09:35:42.800Z,102139.84
2024-04-22T09:38:10.678Z,102142.31
2024-04-22T09:40:44.136Z,102134.19
2024-04-22T09:43:13.108Z,102133.47
2024-04-22T09:45:43.266Z,102139.13
2024-04-22T09:48:11.933Z,102130.28
2024-04-22T09:50:42.214Z,102128.28
2024-04-22T09:53:10.779Z,102129.03
2024-04-22T09:55:45.157Z,102133.47
2024-04-22T09:58:13.693Z,102130.22
2024-04-22T10:00:44.816Z,102137.47
2024-04-22T10:03:12.211Z,102132.56
2024-04-22T10:05:43.257Z,102137.00
2024-04-22T10:08:11.609Z,102139.84
2024-04-22T10:10:47.113Z,102143.84
2024-04-22T10:13:14.626Z,102142.22
2024-04-22T10:15:44.568Z,102143.84
2024-04-22T10:18:12.296Z,102147.03
2024-04-22T10:20:43.317Z,102149.84
2024-04-22T10:23:13.483Z,102147.84
2024-04-22T10:25:43.380Z,102137.38
2024-04-22T10:28:13.493Z,102143.84
2024-04-22T10:30:43.742Z,102129.28
2024-04-22T10:33:13.779Z,102136.56
2024-04-22T10:35:41.010Z,102138.94
2024-04-22T10:38:10.870Z,102133.31
2024-04-22T10:40:38.281Z,102144.59
2024-04-22T10:43:08.292Z,102141.28
2024-04-22T10:45:39.791Z,102139.28
2024-04-22T10:48:17.178Z,102133.31
2024-04-22T10:50:48.212Z,102123.66
2024-04-22T10:53:18.129Z,102123.66
2024-04-22T10:55:45.303Z,102117.63
2024-04-22T10:58:16.383Z,102138.19
2024-04-22T11:00:49.394Z,102124.09
2024-04-22T11:03:21.293Z,102111.63
2024-04-22T11:05:49.524Z,102125.28
2024-04-22T11:08:19.979Z,102121.66
2024-04-22T11:10:47.594Z,102128.47
2024-04-22T11:13:18.290Z,102122.03
2024-04-22T11:15:48.781Z,102122.38
2024-04-22T11:18:22.644Z,102112.38
2024-04-22T11:20:50.081Z,102113.19
2024-04-22T11:23:21.628Z,102119.63
2024-04-22T11:25:49.754Z,102105.53
2024-04-22T11:28:22.194Z,102110.81
2024-04-22T11:30:52.240Z,102102.00
2024-04-22T11:33:24.312Z,102100.44
2024-04-22T11:35:51.794Z,102102.06
2024-04-22T11:38:22.041Z,102100.81
2024-04-22T11:40:49.335Z,102093.97
2024-04-22T11:43:19.169Z,102092.34
2024-04-22T11:45:46.325Z,102092.34
2024-04-22T11:48:19.234Z,102093.16
2024-04-22T11:50:46.724Z,102086.72
2024-04-22T11:53:23.573Z,102086.72
2024-04-22T11:55:53.493Z,102077.78
2024-04-22T11:58:25.758Z,102080.97
2024-04-22T12:00:53.120Z,102082.25
2024-04-22T12:03:25.943Z,102081.78
2024-04-22T12:05:53.978Z,102077.78
2024-04-22T12:08:23.849Z,102067.31
2024-04-22T12:10:51.648Z,102064.13
2024-04-22T12:13:22.550Z,102052.47
2024-04-22T12:15:49.733Z,102050.47
2024-04-22T12:18:19.544Z,102051.66
2024-04-22T12:20:49.824Z,102054.94
2024-04-22T12:23:19.734Z,102048.09
2024-04-22T12:25:46.842Z,102061.47
2024-04-22T12:28:21.927Z,102055.41
2024-04-22T12:30:52.709Z,102055.41
2024-04-22T12:33:23.013Z,102046.47
2024-04-22T12:35:52.937Z,102046.47
2024-04-22T12:38:22.754Z,102043.19
2024-04-22T12:40:50.173Z,102039.94
2024-04-22T12:43:20.305Z,102035.94
2024-04-22T12:45:47.522Z,102033.56
2024-04-22T12:48:33.470Z,102030.34
2024-04-22T12:51:07.089Z,102022.34
2024-04-22T12:53:37.019Z,102020.78
2024-04-22T12:56:07.193Z,102026.44
2024-04-22T12:58:39.048Z,102023.22
2024-04-22T13:01:09.146Z,102018.44
2024-04-22T13:03:39.143Z,102028.06
2024-04-22T13:06:11.963Z,102028.06
2024-04-22T13:08:41.780Z,102049.47
2024-04-22T13:11:11.642Z,102045.00
2024-04-22T13:13:41.606Z,102048.28
2024-04-22T13:16:11.325Z,102041.72
2024-04-22T13:18:38.450Z,102044.13
2024-04-22T13:21:08.551Z,102040.09
2024-04-22T13:23:38.468Z,102048.09
2024-04-22T13:26:08.381Z,102042.09
2024-04-22T13:28:35.735Z,102036.81
2024-04-22T13:31:05.940Z,102039.19
2024-04-22T13:33:33.815Z,102032.84
2024-04-22T13:36:04.184Z,102035.28
2024-04-22T13:38:31.310Z,102036.53
2024-04-22T13:41:03.741Z,102026.44
2024-04-22T13:43:31.120Z,102018.44
2024-04-22T13:46:00.867Z,102017.59
2024-04-22T13:48:28.114Z,102014.44
2024-04-22T13:50:58.303Z,102017.59
2024-04-22T13:53:31.580Z,102025.72
2024-04-22T13:56:04.872Z,102012.03
2024-04-22T13:58:31.977Z,102012.03
2024-04-22T14:01:01.878Z,102009.22
2024-04-22T14:03:29.213Z,102011.22
2024-04-22T14:05:59.300Z,102016.88
2024-04-22T14:08:26.946Z,102013.66
2024-04-22T14:10:56.872Z,102016.06
2024-04-22T14:13:29.368Z,102019.31
2024-04-22T14:15:56.511Z,102026.53
2024-04-22T14:18:26.426Z,102011.94
2024-04-22T14:20:53.810Z,102019.25
2024-04-22T14:23:23.728Z,102021.25
2024-04-22T14:25:53.200Z,102026.16
2024-04-22T14:28:23.351Z,102025.72
2024-04-22T14:30:53.186Z,102020.88
2024-04-22T14:33:23.936Z,102026.16
2024-04-22T14:35:51.929Z,102024.97
2024-04-22T14:38:23.147Z,102030.59
2024-04-22T14:40:52.517Z,102026.16
2024-04-22T14:43:22.816Z,102027.34
2024-04-22T14:45:52.687Z,102032.97
2024-04-22T14:48:22.755Z,102028.97
2024-04-22T14:50:53.004Z,102024.53
2024-04-22T14:53:22.980Z,102019.31
2024-04-22T14:55:50.436Z,102024.97
2024-04-22T14:58:20.500Z,102021.69
2024-04-22T15:00:48.757Z,102021.69
2024-04-22T15:03:21.436Z,102027.34
2024-04-22T15:05:48.766Z,102025.78
2024-04-22T15:08:18.601Z,102028.97
2024-04-22T15:10:49.016Z,102032.22
2024-04-22T15:13:18.948Z,102037.88
2024-04-22T15:15:46.221Z,102046.34
2024-04-22T15:18:16.084Z,102041.88
2024-04-22T15:20:45.909Z,102026.16
2024-04-22T15:23:15.667Z,102021.69
2024-04-22T15:25:42.764Z,102021.69
2024-04-22T15:28:13.998Z,102017.25
2024-04-22T15:30:41.060Z,102021.69
2024-04-22T15:33:11.157Z,102020.06
2024-04-22T15:35:38.390Z,102016.06
2024-04-22T15:38:11.013Z,102018.44
2024-04-22T15:40:38.587Z,102014.44
2024-04-22T15:43:08.816Z,102021.25
2024-04-22T15:45:35.987Z,102012.78
2024-04-22T15:48:07.625Z,102018.88
2024-04-22T15:50:38.252Z,102016.06
2024-04-22T15:53:12.564Z,102003.13
2024-04-22T15:55:44.285Z,102011.66
2024-04-22T15:58:12.709Z,102006.41
2024-04-22T16:00:42.666Z,102010.84
2024-04-22T16:03:09.789Z,102003.56
2024-04-22T16:05:39.589Z,102003.56
2024-04-22T16:08:09.544Z,102006.41
2024-04-22T16:10:40.240Z,102001.13
2024-04-22T16:13:07.348Z,101996.75
2024-04-22T16:15:37.197Z,101995.13
2024-04-22T16:18:04.714Z,101995.13
2024-04-22T16:20:34.616Z,101991.03
2024-04-22T16:23:04.205Z,101991.91
2024-04-22T16:25:38.366Z,101991.09
2024-04-22T16:28:05.921Z,101997.94
2024-04-22T16:30:35.647Z,101995.13
2024-04-22T16:33:02.984Z,101996.75
2024-04-22T16:35:33.271Z,101996.75
2024-04-22T16:38:01.023Z,101994.28
2024-04-22T16:40:30.805Z,102002.38
2024-04-22T16:43:00.630Z,102001.56
2024-04-22T16:45:30.900Z,102007.69
2024-04-22T16:48:01.720Z,102008.84
2024-04-22T16:50:31.714Z,101999.56
2024-04-22T16:52:59.982Z,102000.38
2024-04-22T16:55:29.816Z,102000.75
2024-04-22T16:57:56.961Z,102003.56
2024-04-22T17:00:29.994Z,102008.03
2024-04-22T17:02:57.065Z,102008.03
2024-04-22T17:05:27.850Z,102010.84
2024-04-22T17:07:55.027Z,102004.34
2024-04-22T17:10:24.956Z,102010.41
2024-04-22T17:12:56.188Z,102016.88
2024-04-22T17:15:29.688Z,102015.63
2024-04-22T17:17:56.857Z,102009.59
2024-04-22T17:20:26.719Z,102023.31
2024-04-22T17:22:53.889Z,102016.06
2024-04-22T17:25:23.666Z,102018.44
2024-04-22T17:27:51.221Z,102019.25
2024-04-22T17:30:21.083Z,102018.44
2024-04-22T17:32:50.990Z,102020.06
2024-04-22T17:35:20.785Z,102018.44
2024-04-22T17:37:48.064Z,102017.59
2024-04-22T17:40:20.263Z,102016.78
2024-04-22T17:42:47.383Z,102012.41
2024-04-22T17:45:17.215Z,102012.41
2024-04-22T17:47:44.377Z,102013.22
2024-04-22T17:50:16.942Z,102008.78
2024-04-22T17:52:44.229Z,102011.59
2024-04-22T17:55:13.981Z,102016.06
2024-04-22T17:57:41.123Z,102018.44
2024-04-22T18:00:15.124Z,102012.78
2024-04-22T18:02:44.047Z,102020.88
2024-04-22T18:05:16.544Z,102019.25
2024-04-22T18:07:43.725Z,102024.16
2024-04-22T18:10:13.507Z,102016.06
2024-04-22T18:12:42.020Z,102018.44
2024-04-22T18:15:11.960Z,102014.44
2024-04-22T18:17:39.270Z,102007.59
2024-04-22T18:20:12.479Z,102008.78
2024-04-22T18:22:47.063Z,102016.06
2024-04-22T18:25:22.729Z,102016.06
2024-04-22T18:27:51.551Z,102025.72
2024-04-22T18:30:21.331Z,102020.06
2024-04-22T18:32:48.538Z,102021.69
2024-04-22T18:35:18.375Z,102018.88
2024-04-22T18:37:48.271Z,102022.88
2024-04-22T18:40:18.130Z,102021.69
2024-04-22T18:42:45.329Z,102026.53
2024-04-22T18:45:15.087Z,102026.06
2024-04-22T18:47:42.283Z,102019.59
2024-04-22T18:50:12.185Z,102018.44
2024-04-22T18:52:39.251Z,102019.25
2024-04-22T18:55:12.087Z,102016.88
2024-04-22T18:57:39.119Z,102011.94
2024-04-22T19:00:11.494Z,102016.06
2024-04-22T19:02:38.770Z,102019.25
2024-04-22T19:05:08.670Z,102020.06
2024-04-22T19:07:37.211Z,102024.91
2024-04-22T19:10:12.323Z,102021.69
2024-04-22T19:12:39.470Z,102020.06
2024-04-22T19:15:09.536Z,102016.78
2024-04-22T19:17:36.788Z,102018.34
2024-04-22T19:20:07.853Z,102019.16
2024-04-22T19:22:34.970Z,102020.78
2024-04-22T19:25:04.747Z,102037.72
2024-04-22T19:27:34.544Z,102016.78
2024-04-22T19:30:04.266Z,102021.59
2024-04-22T19:32:31.357Z,102026.44
2024-04-22T19:35:01.262Z,102023.19
2024-04-22T19:37:28.453Z,102019.16
2024-04-22T19:39:58.207Z,102023.22
2024-04-22T19:42:25.319Z,102018.44
2024-04-22T19:44:57.754Z,102022.06
2024-04-22T19:47:25.071Z,102020.06
2024-04-22T19:49:55.052Z,102024.09
2024-04-22T19:52:22.294Z,102012.78
2024-04-22T19:54:55.162Z,102016.06
2024-04-22T19:57:23.350Z,102012.78
2024-04-22T19:59:53.549Z,102018.44
2024-04-22T20:02:30.582Z,102020.06
2024-04-22T20:05:00.667Z,101974.25
2024-04-22T20:07:28.162Z,102021.97
2024-04-22T20:09:57.977Z,102022.41
2024-04-22T20:12:25.028Z,102013.53
2024-04-22T20:14:55.525Z,102017.53
2024-04-22T20:17:42.980Z,102023.19
2024-04-22T20:20:13.044Z,102011.88
2024-04-22T20:22:40.177Z,102017.53
2024-04-22T20:25:10.043Z,102019.16
2024-04-22T20:27:37.276Z,102013.53
2024-04-22T20:30:07.253Z,102019.16
2024-04-22T20:32:37.156Z,102018.34
2024-04-22T20:35:07.779Z,102020.78
2024-04-22T20:37:35.119Z,102020.34
2024-04-22T20:40:05.171Z,102023.63
2024-04-22T20:42:32.395Z,102017.53
2024-04-22T20:45:02.158Z,102023.19
2024-04-22T20:47:29.350Z,102019.97
2024-04-22T20:50:01.767Z,101930.84
2024-04-22T20:52:28.955Z,102014.34
2024-04-22T20:54:58.647Z,102014.34
2024-04-22T20:57:26.228Z,102015.16
2024-04-22T20:59:55.977Z,102010.31
2024-04-22T21:02:23.045Z,102013.09
2024-04-22T21:04:52.826Z,102014.34
2024-04-22T21:07:22.652Z,102017.53
2024-04-22T21:09:52.375Z,102003.88
2024-04-22T21:12:19.665Z,102006.25
2024-04-22T21:14:49.488Z,102003.88
2024-04-22T21:17:16.653Z,102007.88
2024-04-22T21:19:46.496Z,102009.50
2024-04-22T21:22:13.518Z,102013.53
2024-04-22T21:24:45.889Z,102012.72
2024-04-22T21:27:12.905Z,102014.72
2024-04-22T21:29:42.620Z,102006.97
2024-04-22T21:32:09.707Z,102010.25
2024-04-22T21:34:39.592Z,102017.06
2024-04-22T21:37:07.038Z,102013.44
2024-04-22T21:39:36.973Z,101987.59
2024-04-22T21:42:06.910Z,102011.88
2024-04-22T21:44:36.643Z,102012.72
2024-04-22T21:47:03.814Z,102011.06
2024-04-22T21:49:33.602Z,102016.72
2024-04-22T21:52:00.721Z,102006.97
2024-04-22T21:54:30.463Z,102015.91
2024-04-22T21:57:16.091Z,102010.25
2024-04-22T22:00:06.053Z,102016.34
2024-04-22T22:02:54.031Z,102008.59
2024-04-22T22:05:42.351Z,102004.63
2024-04-22T22:08:10.512Z,102005.06
2024-04-22T22:10:44.604Z,102011.88
2024-04-22T22:13:11.896Z,102007.88
2024-04-22T22:15:41.759Z,102006.25
2024-04-22T22:18:09.345Z,102006.69
2024-04-22T22:20:39.215Z,102007.88
2024-04-22T22:23:06.479Z,102013.09
2024-04-22T22:25:36.332Z,102006.97
2024-04-22T22:28:06.555Z,102004.25
2024-04-22T22:30:36.274Z,102002.97
2024-04-22T22:33:03.449Z,101996.50
2024-04-22T22:35:33.178Z,101998.97
2024-04-22T22:38:00.355Z,101997.31
2024-04-22T22:40:30.307Z,101994.97
2024-04-22T22:43:00.491Z,101998.50
2024-04-22T22:45:32.990Z,101998.97
2024-04-22T22:48:00.318Z,101995.69
2024-04-22T22:50:30.146Z,101994.06
2024-04-22T22:52:57.374Z,101997.31
2024-04-22T22:55:27.235Z,101994.50
2024-04-22T22:57:54.275Z,101991.69
2024-04-22T23:00:24.110Z,101991.69
2024-04-22T23:02:54.094Z,101982.78
2024-04-22T23:05:23.919Z,101976.31
2024-04-22T23:07:51.012Z,101978.75
2024-04-22T23:10:20.816Z,101984.41
2024-04-22T23:12:47.911Z,101973.13
2024-04-22T23:15:17.853Z,101976.31
2024-04-22T23:17:45.021Z,101975.13
2024-04-22T23:20:17.552Z,101967.47
2024-04-22T23:22:44.648Z,101963.03
2024-04-22T23:25:14.505Z,101961.03
2024-04-22T23:27:42.370Z,101966.28
2024-04-22T23:30:12.599Z,101959.47
2024-04-22T23:32:39.792Z,101955.47
2024-04-22T23:35:09.761Z,101950.56
2024-04-22T23:37:39.549Z,101955.38
2024-04-22T23:40:09.788Z,101950.94
2024-04-22T23:42:36.977Z,101955.00
2024-04-22T23:45:07.049Z,101948.09
2024-04-22T23:47:34.853Z,101961.84
2024-04-22T23:50:23.412Z,101946.53
2024-04-22T23:52:53.263Z,101950.56
2024-04-22T23:55:23.174Z,101944.91
2024-04-22T23:57:50.369Z,101943.28
